createdAt,value
2019-01-18T00:00:35.476Z,1.17
2019-01-18T00:03:01.891Z,1.53
2019-01-18T00:05:28.652Z,1.13
2019-01-18T00:07:55.100Z,1.50
2019-01-18T00:10:21.516Z,1.43
2019-01-18T00:12:47.967Z,0.90
2019-01-18T00:15:14.685Z,1.20
2019-01-18T00:17:41.099Z,1.50
2019-01-18T00:20:13.064Z,1.00
2019-01-18T00:22:39.475Z,0.90
2019-01-18T00:25:06.442Z,1.10
2019-01-18T00:27:32.854Z,1.20
2019-01-18T00:29:59.267Z,1.17
2019-01-18T00:32:25.711Z,1.13
2019-01-18T00:34:52.387Z,1.30
2019-01-18T00:37:18.799Z,0.80
2019-01-18T00:39:45.243Z,0.90
2019-01-18T00:42:11.687Z,1.33
2019-01-18T00:44:38.104Z,0.87
2019-01-18T00:47:04.552Z,0.80
2019-01-18T00:49:31.287Z,0.90
2019-01-18T00:51:57.737Z,0.93
2019-01-18T00:54:24.147Z,1.00
2019-01-18T00:56:50.569Z,0.70
2019-01-18T00:59:17.020Z,0.90
2019-01-18T01:01:43.444Z,0.77
2019-01-18T01:04:09.855Z,0.70
2019-01-18T01:06:36.619Z,0.70
2019-01-18T01:09:05.212Z,0.63
2019-01-18T01:11:31.632Z,0.67
2019-01-18T01:13:58.076Z,0.50
2019-01-18T01:16:24.489Z,0.77
2019-01-18T01:18:50.936Z,0.83
2019-01-18T01:21:17.351Z,0.90
2019-01-18T01:23:43.802Z,0.90
2019-01-18T01:26:10.541Z,0.90
2019-01-18T01:28:36.954Z,0.70
2019-01-18T01:31:03.404Z,1.27
2019-01-18T01:33:29.816Z,0.60
2019-01-18T01:35:56.259Z,0.60
2019-01-18T01:38:22.672Z,0.57
2019-01-18T01:40:49.435Z,0.70
2019-01-18T01:43:15.884Z,1.20
2019-01-18T01:45:42.607Z,0.80
2019-01-18T01:48:09.347Z,0.87
2019-01-18T01:50:35.771Z,0.70
2019-01-18T01:53:02.215Z,0.70
2019-01-18T01:55:28.631Z,0.60
2019-01-18T01:57:56.382Z,0.47
2019-01-18T02:00:23.895Z,0.50
2019-01-18T02:02:50.354Z,1.07
2019-01-18T02:05:16.763Z,0.50
2019-01-18T02:07:43.574Z,0.60
2019-01-18T02:10:11.122Z,0.40
2019-01-18T02:12:37.535Z,0.90
2019-01-18T02:15:06.145Z,0.60
2019-01-18T02:17:32.560Z,0.50
2019-01-18T02:19:59.003Z,0.50
2019-01-18T02:22:25.747Z,0.50
2019-01-18T02:24:52.163Z,0.60
2019-01-18T02:27:18.603Z,1.33
2019-01-18T02:29:45.043Z,0.77
2019-01-18T02:32:11.888Z,0.60
2019-01-18T02:34:38.333Z,1.10
2019-01-18T02:37:05.880Z,0.47
2019-01-18T02:39:32.615Z,0.50
2019-01-18T02:41:59.371Z,0.60
2019-01-18T02:44:26.096Z,1.07
2019-01-18T02:46:52.543Z,0.50
2019-01-18T02:49:18.967Z,1.03
2019-01-18T02:51:45.383Z,0.60
2019-01-18T02:54:11.831Z,0.60
2019-01-18T02:56:38.564Z,0.80
2019-01-18T02:59:04.978Z,0.50
2019-01-18T03:01:31.740Z,0.60
2019-01-18T03:03:58.479Z,0.50
2019-01-18T03:06:25.211Z,0.53
2019-01-18T03:08:51.956Z,0.60
2019-01-18T03:11:18.708Z,0.60
2019-01-18T03:13:45.222Z,0.50
2019-01-18T03:16:11.963Z,0.70
2019-01-18T03:18:38.375Z,0.53
2019-01-18T03:21:04.788Z,0.60
2019-01-18T03:23:31.235Z,0.60
2019-01-18T03:25:57.653Z,0.60
2019-01-18T03:28:24.064Z,0.50
2019-01-18T03:30:50.515Z,0.53
2019-01-18T03:33:16.920Z,0.60
2019-01-18T03:35:43.627Z,0.50
2019-01-18T03:38:10.044Z,0.50
2019-01-18T03:40:36.491Z,0.63
2019-01-18T03:43:03.231Z,0.97
2019-01-18T03:45:29.707Z,0.80
2019-01-18T03:47:56.402Z,0.50
2019-01-18T03:50:24.330Z,0.50
2019-01-18T03:52:52.711Z,0.70
2019-01-18T03:55:19.161Z,0.70
2019-01-18T03:57:45.576Z,0.90
2019-01-18T04:00:13.478Z,0.50
2019-01-18T04:02:40.224Z,0.73
2019-01-18T04:05:08.495Z,0.60
2019-01-18T04:07:35.240Z,0.70
2019-01-18T04:10:03.063Z,1.27
2019-01-18T04:12:29.840Z,0.60
2019-01-18T04:14:56.252Z,0.50
2019-01-18T04:17:23.011Z,0.60
2019-01-18T04:19:49.423Z,0.50
2019-01-18T04:22:16.183Z,0.60
2019-01-18T04:24:42.631Z,0.50
2019-01-18T04:27:09.043Z,0.60
2019-01-18T04:29:35.492Z,0.60
2019-01-18T04:32:01.905Z,0.50
2019-01-18T04:34:28.651Z,0.80
2019-01-18T04:36:55.101Z,0.60
2019-01-18T04:39:21.511Z,0.70
2019-01-18T04:41:48.260Z,0.53
2019-01-18T04:44:14.731Z,6.10
2019-01-18T04:46:41.148Z,0.50
2019-01-18T04:49:07.600Z,0.60
2019-01-18T04:51:34.015Z,0.70
2019-01-18T04:54:00.824Z,0.80
2019-01-18T04:56:27.272Z,0.53
2019-01-18T04:58:54.002Z,0.60
2019-01-18T05:01:20.740Z,0.50
2019-01-18T05:03:47.195Z,0.50
2019-01-18T05:06:13.907Z,0.70
2019-01-18T05:08:40.320Z,1.07
2019-01-18T05:11:06.778Z,0.70
2019-01-18T05:13:33.521Z,0.70
2019-01-18T05:16:01.432Z,0.60
2019-01-18T05:18:27.882Z,0.60
2019-01-18T05:20:54.296Z,0.60
2019-01-18T05:23:20.707Z,0.63
2019-01-18T05:25:47.151Z,0.70
2019-01-18T05:28:13.863Z,0.70
2019-01-18T05:30:47.304Z,1.90
2019-01-18T05:33:08.858Z,1.10
2019-01-18T05:35:35.307Z,0.73
2019-01-18T05:38:01.751Z,0.50
2019-01-18T05:40:28.465Z,0.70
2019-01-18T05:42:54.913Z,0.50
2019-01-18T05:45:22.154Z,0.53
2019-01-18T05:47:48.567Z,0.70
2019-01-18T05:50:16.215Z,0.60
2019-01-18T05:52:42.667Z,0.60
2019-01-18T05:55:09.083Z,0.70
2019-01-18T05:57:35.508Z,0.90
2019-01-18T06:00:03.156Z,1.23
2019-01-18T06:02:29.599Z,1.00
2019-01-18T06:04:57.017Z,0.70
2019-01-18T06:07:23.459Z,0.50
2019-01-18T06:09:49.887Z,0.70
2019-01-18T06:12:16.593Z,0.70
2019-01-18T06:14:43.010Z,0.80
2019-01-18T06:17:09.419Z,0.80
2019-01-18T06:19:36.195Z,0.80
2019-01-18T06:22:02.636Z,1.30
2019-01-18T06:24:29.388Z,1.90
2019-01-18T06:26:55.832Z,0.70
2019-01-18T06:29:22.239Z,0.50
2019-01-18T06:31:48.968Z,0.70
2019-01-18T06:34:15.421Z,2.97
2019-01-18T06:36:42.142Z,0.50
2019-01-18T06:39:08.881Z,1.07
2019-01-18T06:41:36.833Z,0.70
2019-01-18T06:44:03.247Z,0.80
2019-01-18T06:46:30.021Z,0.70
2019-01-18T06:48:57.176Z,0.67
2019-01-18T06:51:23.593Z,1.53
2019-01-18T06:53:50.003Z,0.60
2019-01-18T06:56:16.452Z,0.70
2019-01-18T06:58:42.871Z,0.60
2019-01-18T07:01:09.287Z,0.63
2019-01-18T07:03:36.066Z,1.33
2019-01-18T07:06:02.479Z,0.60
2019-01-18T07:08:29.136Z,1.10
2019-01-18T07:10:55.588Z,3.57
2019-01-18T07:13:22.031Z,0.70
2019-01-18T07:15:48.743Z,1.60
2019-01-18T07:18:15.192Z,0.80
2019-01-18T07:20:41.608Z,0.60
2019-01-18T07:23:08.089Z,2.13
2019-01-18T07:25:34.572Z,1.07
2019-01-18T07:28:01.023Z,0.80
2019-01-18T07:30:29.339Z,1.47
2019-01-18T07:32:55.784Z,0.80
2019-01-18T07:35:22.231Z,0.80
2019-01-18T07:37:48.658Z,1.00
2019-01-18T07:40:15.058Z,1.30
2019-01-18T07:42:42.311Z,2.33
2019-01-18T07:45:10.623Z,0.90
2019-01-18T07:47:37.072Z,1.17
2019-01-18T07:50:05.427Z,4.20
2019-01-18T07:52:31.871Z,3.47
2019-01-18T07:54:58.312Z,1.53
2019-01-18T07:57:24.756Z,1.03
2019-01-18T07:59:51.214Z,1.50
2019-01-18T08:02:17.622Z,2.57
2019-01-18T08:04:44.064Z,3.37
2019-01-18T08:07:10.480Z,1.90
2019-01-18T08:09:37.212Z,1.43
2019-01-18T08:12:03.953Z,3.93
2019-01-18T08:14:30.368Z,1.60
2019-01-18T08:16:56.780Z,1.70
2019-01-18T08:19:23.227Z,1.97
2019-01-18T08:21:49.639Z,1.37
2019-01-18T08:24:16.051Z,1.30
2019-01-18T08:26:42.747Z,1.57
2019-01-18T08:29:09.168Z,1.60
2019-01-18T08:31:35.612Z,1.67
2019-01-18T08:34:02.029Z,1.50
2019-01-18T08:36:28.470Z,2.43
2019-01-18T08:38:54.892Z,1.70
2019-01-18T08:41:21.302Z,1.50
2019-01-18T08:43:47.751Z,1.97
2019-01-18T08:46:14.163Z,1.80
2019-01-18T08:48:40.948Z,2.07
2019-01-18T08:51:07.391Z,2.10
2019-01-18T08:53:33.807Z,17.10
2019-01-18T08:56:00.258Z,16.80
2019-01-18T08:58:26.700Z,3.80
2019-01-18T09:00:53.112Z,1.80
2019-01-18T09:03:19.528Z,4.47
2019-01-18T09:05:45.971Z,2.00
2019-01-18T09:08:12.712Z,2.10
2019-01-18T09:10:39.452Z,4.53
2019-01-18T09:13:05.896Z,2.17
2019-01-18T09:15:32.320Z,3.93
2019-01-18T09:17:59.055Z,2.73
2019-01-18T09:20:27.109Z,2.93
2019-01-18T09:22:53.523Z,3.47
2019-01-18T09:25:19.934Z,4.40
2019-01-18T09:27:46.628Z,4.40
2019-01-18T09:30:14.943Z,4.03
2019-01-18T09:32:42.669Z,4.30
2019-01-18T09:35:10.920Z,5.03
2019-01-18T09:37:37.363Z,5.63
2019-01-18T09:40:05.688Z,4.93
2019-01-18T09:42:32.132Z,5.10
2019-01-18T09:44:58.825Z,6.40
2019-01-18T09:47:25.306Z,6.57
2019-01-18T09:49:51.991Z,5.50
2019-01-18T09:52:18.408Z,5.30
2019-01-18T09:54:44.853Z,6.23
2019-01-18T09:57:11.596Z,5.60
2019-01-18T09:59:38.115Z,4.80
2019-01-18T10:02:04.556Z,4.77
2019-01-18T10:04:30.967Z,5.60
2019-01-18T10:06:57.652Z,5.43
2019-01-18T10:09:24.069Z,4.73
2019-01-18T10:11:50.498Z,5.30
2019-01-18T10:14:16.945Z,5.97
2019-01-18T10:16:43.355Z,5.00
2019-01-18T10:19:09.774Z,4.43
2019-01-18T10:21:36.224Z,4.90
2019-01-18T10:24:02.644Z,4.63
2019-01-18T10:26:29.095Z,4.53
2019-01-18T10:28:55.832Z,5.20
2019-01-18T10:31:22.247Z,5.53
2019-01-18T10:33:49.000Z,4.90
2019-01-18T10:36:15.741Z,5.70
2019-01-18T10:38:42.480Z,5.50
2019-01-18T10:41:08.929Z,4.63
2019-01-18T10:43:35.345Z,5.03
2019-01-18T10:46:01.794Z,4.67
2019-01-18T10:48:28.238Z,4.87
2019-01-18T10:50:54.948Z,5.00
2019-01-18T10:53:21.395Z,4.93
2019-01-18T10:55:47.808Z,4.97
2019-01-18T10:58:14.228Z,4.73
2019-01-18T11:00:40.772Z,4.77
2019-01-18T11:03:07.193Z,5.33
2019-01-18T11:05:33.638Z,5.13
2019-01-18T11:08:00.051Z,4.90
2019-01-18T11:10:26.495Z,5.40
2019-01-18T11:12:52.903Z,4.43
2019-01-18T11:15:21.214Z,4.90
2019-01-18T11:17:47.668Z,6.03
2019-01-18T11:20:15.988Z,5.13
2019-01-18T11:22:42.408Z,5.20
2019-01-18T11:25:08.854Z,4.53
2019-01-18T11:27:35.267Z,4.90
2019-01-18T11:30:01.880Z,4.80
2019-01-18T11:32:28.597Z,5.40
2019-01-18T11:34:55.020Z,4.23
2019-01-18T11:37:21.436Z,4.00
2019-01-18T11:39:48.199Z,4.57
2019-01-18T11:42:14.940Z,4.47
2019-01-18T11:44:41.356Z,4.13
2019-01-18T11:47:07.804Z,5.30
2019-01-18T11:49:34.247Z,4.20
2019-01-18T11:52:00.691Z,4.00
2019-01-18T11:54:27.104Z,4.10
2019-01-18T11:56:53.842Z,4.07
2019-01-18T11:59:20.251Z,4.63
2019-01-18T12:01:46.700Z,4.30
2019-01-18T12:04:13.147Z,4.10
2019-01-18T12:06:39.698Z,4.27
2019-01-18T12:09:06.108Z,4.30
2019-01-18T12:11:32.844Z,4.27
2019-01-18T12:13:59.580Z,3.60
2019-01-18T12:16:25.996Z,3.83
2019-01-18T12:18:52.426Z,4.03
2019-01-18T12:21:18.951Z,3.83
2019-01-18T12:23:45.368Z,3.43
2019-01-18T12:26:11.786Z,3.60
2019-01-18T12:28:38.231Z,3.23
2019-01-18T12:31:04.644Z,3.40
2019-01-18T12:33:31.092Z,3.93
2019-01-18T12:35:57.540Z,3.37
2019-01-18T12:38:23.975Z,2.70
2019-01-18T12:40:50.872Z,3.93
2019-01-18T12:43:17.359Z,3.50
2019-01-18T12:45:43.767Z,3.17
2019-01-18T12:48:10.235Z,3.07
2019-01-18T12:50:36.689Z,3.13
2019-01-18T12:53:03.415Z,3.70
2019-01-18T12:55:29.859Z,2.60
2019-01-18T12:57:56.294Z,3.23
2019-01-18T13:00:25.235Z,3.40
2019-01-18T13:02:51.654Z,3.33
2019-01-18T13:05:23.259Z,3.10
2019-01-18T13:07:49.709Z,3.30
2019-01-18T13:10:16.431Z,2.97
2019-01-18T13:12:42.874Z,3.03
2019-01-18T13:15:11.191Z,2.60
2019-01-18T13:17:38.178Z,3.33
2019-01-18T13:20:06.511Z,2.37
2019-01-18T13:22:32.907Z,2.70
2019-01-18T13:24:59.631Z,2.67
2019-01-18T13:27:26.387Z,2.73
2019-01-18T13:29:52.783Z,3.03
2019-01-18T13:32:19.244Z,2.70
2019-01-18T13:34:45.654Z,2.67
2019-01-18T13:37:12.066Z,2.60
2019-01-18T13:39:38.516Z,2.30
2019-01-18T13:42:04.932Z,2.00
2019-01-18T13:44:31.379Z,1.90
2019-01-18T13:46:57.791Z,2.63
2019-01-18T13:49:24.463Z,2.60
2019-01-18T13:51:50.939Z,2.83
2019-01-18T13:54:17.350Z,2.67
2019-01-18T13:56:43.763Z,2.30
2019-01-18T13:59:10.207Z,2.10
2019-01-18T14:01:36.619Z,2.20
2019-01-18T14:04:03.068Z,2.20
2019-01-18T14:06:29.492Z,2.43
2019-01-18T14:08:55.960Z,2.87
2019-01-18T14:11:22.457Z,2.73
2019-01-18T14:13:49.195Z,1.87
2019-01-18T14:16:15.937Z,2.20
2019-01-18T14:18:42.347Z,2.07
2019-01-18T14:21:08.764Z,1.80
2019-01-18T14:23:35.311Z,2.27
2019-01-18T14:26:01.972Z,2.13
2019-01-18T14:28:28.419Z,2.13
2019-01-18T14:30:55.144Z,2.10
2019-01-18T14:33:21.610Z,2.07
2019-01-18T14:35:48.315Z,2.00
2019-01-18T14:38:14.737Z,2.00
2019-01-18T14:40:41.184Z,1.70
2019-01-18T14:43:07.598Z,1.93
2019-01-18T14:45:35.443Z,1.77
2019-01-18T14:48:01.859Z,1.80
2019-01-18T14:50:28.335Z,2.40
2019-01-18T14:52:54.756Z,1.80
2019-01-18T14:55:22.199Z,2.20
2019-01-18T14:57:48.631Z,1.80
2019-01-18T15:00:20.028Z,1.73
2019-01-18T15:02:46.443Z,1.70
2019-01-18T15:05:12.895Z,2.10
2019-01-18T15:07:39.611Z,1.50
2019-01-18T15:10:07.919Z,1.77
2019-01-18T15:12:34.363Z,1.67
2019-01-18T15:15:01.060Z,2.13
2019-01-18T15:17:27.472Z,1.90
2019-01-18T15:19:53.916Z,2.20
2019-01-18T15:22:20.331Z,1.77
2019-01-18T15:24:46.781Z,1.50
2019-01-18T15:27:13.196Z,1.90
2019-01-18T15:29:39.607Z,1.80
2019-01-18T15:32:06.057Z,1.77
2019-01-18T15:34:32.460Z,1.37
2019-01-18T15:36:59.158Z,1.60
2019-01-18T15:39:25.584Z,1.77
2019-01-18T15:41:51.984Z,1.40
2019-01-18T15:44:18.754Z,1.60
2019-01-18T15:46:45.502Z,1.30
2019-01-18T15:49:11.952Z,1.87
2019-01-18T15:51:38.667Z,1.40
2019-01-18T15:54:05.121Z,1.47
2019-01-18T15:56:31.839Z,1.57
2019-01-18T15:58:58.260Z,1.70
2019-01-18T16:01:24.717Z,1.80
2019-01-18T16:03:51.137Z,1.23
2019-01-18T16:06:17.875Z,1.53
2019-01-18T16:08:44.323Z,1.67
2019-01-18T16:11:10.740Z,1.60
2019-01-18T16:13:37.151Z,1.33
2019-01-18T16:16:05.759Z,1.67
2019-01-18T16:18:32.171Z,1.90
2019-01-18T16:20:58.583Z,1.33
2019-01-18T16:23:25.027Z,1.43
2019-01-18T16:25:51.691Z,1.50
2019-01-18T16:28:18.131Z,1.00
2019-01-18T16:30:44.560Z,1.33
2019-01-18T16:33:10.968Z,1.17
2019-01-18T16:35:37.411Z,1.37
2019-01-18T16:38:05.384Z,1.17
2019-01-18T16:40:32.736Z,1.30
2019-01-18T16:43:03.816Z,1.73
2019-01-18T16:45:30.259Z,1.30
2019-01-18T16:47:56.702Z,1.50
2019-01-18T16:50:23.116Z,1.40
2019-01-18T16:52:49.600Z,1.47
2019-01-18T16:55:16.016Z,1.37
2019-01-18T16:57:42.459Z,1.37
2019-01-18T17:00:10.776Z,1.17
2019-01-18T17:02:37.491Z,1.27
2019-01-18T17:05:04.745Z,1.50
2019-01-18T17:07:31.155Z,1.07
2019-01-18T17:09:57.602Z,1.33
2019-01-18T17:12:24.056Z,6.00
2019-01-18T17:14:50.467Z,1.37
2019-01-18T17:17:17.211Z,1.23
2019-01-18T17:19:43.659Z,1.47
2019-01-18T17:22:10.383Z,2.50
2019-01-18T17:24:36.827Z,2.50
2019-01-18T17:27:03.553Z,3.10
2019-01-18T17:29:29.963Z,3.00
2019-01-18T17:31:56.745Z,3.50
2019-01-18T17:34:23.162Z,2.73
2019-01-18T17:36:49.572Z,3.27
2019-01-18T17:39:17.923Z,24.67
2019-01-18T17:41:58.427Z,14.43
2019-01-18T17:44:35.671Z,16.23
2019-01-18T17:47:04.311Z,16.17
2019-01-18T17:49:38.720Z,10.23
2019-01-18T17:52:25.164Z,9.20
2019-01-18T17:54:53.543Z,9.03
2019-01-18T17:57:21.860Z,8.50
2019-01-18T18:00:02.764Z,7.33
2019-01-18T18:02:34.021Z,9.53
2019-01-18T18:05:05.391Z,8.67
2019-01-18T18:07:36.723Z,8.50
2019-01-18T18:10:05.040Z,8.67
2019-01-18T18:12:42.859Z,7.40
2019-01-18T18:15:11.175Z,7.40
2019-01-18T18:17:45.863Z,8.93
2019-01-18T18:20:14.179Z,7.00
2019-01-18T18:22:54.471Z,6.10
2019-01-18T18:25:23.079Z,6.07
2019-01-18T18:27:51.448Z,7.60
2019-01-18T18:30:22.803Z,6.30
2019-01-18T18:33:07.732Z,8.77
2019-01-18T18:35:39.104Z,6.13
2019-01-18T18:38:13.639Z,8.57
2019-01-18T18:40:41.955Z,9.60
2019-01-18T18:43:13.052Z,6.00
2019-01-18T18:45:41.419Z,6.37
2019-01-18T18:48:10.024Z,5.40
2019-01-18T18:50:54.835Z,5.78
2019-01-18T18:53:26.152Z,5.20
2019-01-18T18:56:03.795Z,7.23
2019-01-18T18:58:38.220Z,5.43
2019-01-18T19:01:06.827Z,5.80
2019-01-18T19:03:44.308Z,6.13
2019-01-18T19:06:25.221Z,7.87
2019-01-18T19:09:10.555Z,6.00
2019-01-18T19:11:41.624Z,5.30
2019-01-18T19:14:16.146Z,8.77
2019-01-18T19:16:47.679Z,5.33
2019-01-18T19:19:31.519Z,5.53
2019-01-18T19:21:59.872Z,8.23
2019-01-18T19:24:44.948Z,5.77
2019-01-18T19:27:31.516Z,5.80
2019-01-18T19:30:05.727Z,6.27
2019-01-18T19:32:40.205Z,5.70
2019-01-18T19:35:17.472Z,5.73
2019-01-18T19:37:48.803Z,6.73
2019-01-18T19:40:17.119Z,6.57
2019-01-18T19:42:54.672Z,5.90
2019-01-18T19:45:23.000Z,7.70
2019-01-18T19:47:57.403Z,7.07
2019-01-18T19:50:42.340Z,5.53
2019-01-18T19:53:17.098Z,5.20
2019-01-18T19:56:00.787Z,4.57
2019-01-18T19:58:29.416Z,4.10
2019-01-18T20:01:12.768Z,4.57
2019-01-18T20:03:47.388Z,4.27
2019-01-18T20:06:18.816Z,3.60
2019-01-18T20:08:53.652Z,4.30
2019-01-18T20:11:28.293Z,5.43
2019-01-18T20:14:13.302Z,4.43
2019-01-18T20:16:56.884Z,4.67
2019-01-18T20:19:34.363Z,4.40
2019-01-18T20:22:05.517Z,4.80
2019-01-18T20:24:33.835Z,4.47
2019-01-18T20:27:02.161Z,6.30
2019-01-18T20:29:47.076Z,4.37
2019-01-18T20:32:33.913Z,3.70
2019-01-18T20:35:19.311Z,3.47
2019-01-18T20:37:47.624Z,3.87
2019-01-18T20:40:33.588Z,4.30
2019-01-18T20:43:02.161Z,4.20
2019-01-18T20:45:33.372Z,3.87
2019-01-18T20:48:01.992Z,4.40
2019-01-18T20:50:36.132Z,3.97
2019-01-18T20:53:10.411Z,4.07
2019-01-18T20:55:47.767Z,3.70
2019-01-18T20:58:34.445Z,3.83
2019-01-18T21:01:05.780Z,3.90
2019-01-18T21:03:46.281Z,4.37
2019-01-18T21:06:14.599Z,4.00
2019-01-18T21:08:42.940Z,3.77
2019-01-18T21:11:14.049Z,3.93
2019-01-18T21:13:45.672Z,3.80
2019-01-18T21:16:32.379Z,3.60
2019-01-18T21:19:17.435Z,3.50
2019-01-18T21:21:51.859Z,3.33
2019-01-18T21:24:23.292Z,3.87
2019-01-18T21:27:03.587Z,3.43
2019-01-18T21:29:44.735Z,3.93
2019-01-18T21:32:25.178Z,3.53
2019-01-18T21:34:59.272Z,3.13
2019-01-18T21:37:27.587Z,3.07
2019-01-18T21:39:59.003Z,3.17
2019-01-18T21:42:30.345Z,3.63
2019-01-18T21:45:15.457Z,3.20
2019-01-18T21:47:43.864Z,3.23
2019-01-18T21:50:24.327Z,3.17
2019-01-18T21:53:01.842Z,3.30
2019-01-18T21:55:30.173Z,2.90
2019-01-18T21:57:58.520Z,3.00
2019-01-18T22:00:43.927Z,2.63
2019-01-18T22:03:12.244Z,3.77
2019-01-18T22:05:46.832Z,3.13
2019-01-18T22:08:18.171Z,3.20
2019-01-18T22:10:46.736Z,2.80
2019-01-18T22:13:18.184Z,3.03
2019-01-18T22:15:46.505Z,3.43
2019-01-18T22:18:23.781Z,3.70
2019-01-18T22:20:54.916Z,2.87
2019-01-18T22:23:26.284Z,3.00
2019-01-18T22:25:57.401Z,4.53
2019-01-18T22:28:28.799Z,3.00
2019-01-18T22:31:06.108Z,3.77
2019-01-18T22:33:37.360Z,3.40
2019-01-18T22:36:17.567Z,3.83
2019-01-18T22:38:45.937Z,3.57
2019-01-18T22:41:20.280Z,4.10
2019-01-18T22:44:00.804Z,3.23
2019-01-18T22:46:29.175Z,3.43
2019-01-18T22:48:57.757Z,3.13
2019-01-18T22:51:38.629Z,3.80
2019-01-18T22:54:18.877Z,3.63
2019-01-18T22:56:59.401Z,3.23
2019-01-18T22:59:36.756Z,3.53
2019-01-18T23:02:23.345Z,3.47
2019-01-18T23:04:55.737Z,3.23
2019-01-18T23:07:22.455Z,3.20
2019-01-18T23:10:07.312Z,3.30
2019-01-18T23:12:35.625Z,3.30
2019-01-18T23:15:13.023Z,2.80
2019-01-18T23:17:41.340Z,3.20
2019-01-18T23:20:09.935Z,3.30
2019-01-18T23:22:54.743Z,3.40
2019-01-18T23:25:23.095Z,3.30
2019-01-18T23:28:03.552Z,3.03
2019-01-18T23:30:37.927Z,3.37
2019-01-18T23:33:06.243Z,2.93
2019-01-18T23:35:34.815Z,3.17
2019-01-18T23:38:19.603Z,3.63
2019-01-18T23:40:57.053Z,3.20
2019-01-18T23:43:25.651Z,3.03
2019-01-18T23:46:12.228Z,2.83
2019-01-18T23:48:59.890Z,2.83
2019-01-18T23:51:45.516Z,2.40
2019-01-18T23:54:19.883Z,3.10
2019-01-18T23:57:03.489Z,3.63
2019-01-18T23:59:31.803Z,3.40
